This is the latest recevied weather packets stored in our database for station/object KY4EF. If no packets are shown the sender has not sent any weather packets the latest 10 day(s).
| Time | Temp. | Humidity | Pressure | Rain* | Wind** | Luminosity | Snow |
|---|---|---|---|---|---|---|---|
| 1777751374 | 17.22° C | 37% | 1011.6 hPa | 0 mm | - | 688 W/m² | - |
| 1777751071 | 16.67° C | 37% | 1011.6 hPa | 0 mm | - | 511 W/m² | - |
| 1777750766 | 16.67° C | 35% | 1011.7 hPa | 0 mm | - | 372 W/m² | - |
| 1777750459 | 20° C | 31% | 1011.7 hPa | 0 mm | - | 322 W/m² | - |
| 1777750154 | 18.33° C | 35% | 1011.6 hPa | 0 mm | - | 711 W/m² | - |
| 1777749851 | 20° C | 33% | 1011.3 hPa | 0 mm | - | 672 W/m² | - |
| 1777749548 | 18.33° C | 36% | 1011.7 hPa | 0 mm | - | 661 W/m² | - |
| 1777749246 | 17.78° C | 32% | 1011.6 hPa | 0 mm | - | 707 W/m² | - |
| 1777748944 | 19.44° C | 31% | 1011.6 hPa | 0 mm | - | 597 W/m² | - |
| 1777748641 | 18.33° C | 31% | 1011.5 hPa | 0 mm | - | 729 W/m² | - |
| 1777748336 | 18.33° C | 32% | 1011.6 hPa | 0 mm | - | 752 W/m² | - |
| 1777748032 | 18.33° C | 33% | 1011.6 hPa | 0 mm | - | 497 W/m² | - |
| 1777747730 | 18.89° C | 33% | 1011.6 hPa | 0 mm | - | 612 W/m² | - |
| 1777747425 | 20° C | 34% | 1011.6 hPa | 0 mm | - | 763 W/m² | - |
| 1777747122 | 20.56° C | 31% | 1011.6 hPa | 0 mm | - | 743 W/m² | - |
| 1777746818 | 19.44° C | 35% | 1011.7 hPa | 0 mm | - | 729 W/m² | - |
| 1777746512 | 18.33° C | 35% | 1011.6 hPa | 0 mm | - | 761 W/m² | - |
| 1777746208 | 18.89° C | 34% | 1011.6 hPa | 0 mm | - | 757 W/m² | - |
| 1777745905 | 20.56° C | 34% | 1011.7 hPa | 0 mm | - | 848 W/m² | - |
| 1777745604 | 19.44° C | 32% | 1012 hPa | 0 mm | - | 843 W/m² | - |
| 1777745301 | 17.78° C | 36% | 1012.2 hPa | 0 mm | - | 718 W/m² | - |
| 1777744998 | 19.44° C | 31% | 1011.8 hPa | 0 mm | - | 755 W/m² | - |
| 1777744694 | 17.78° C | 37% | 1011.9 hPa | 0 mm | - | 782 W/m² | - |
| 1777744383 | 17.78° C | 34% | 1012 hPa | 0 mm | - | 781 W/m² | - |
| 1777744080 | 19.44° C | 32% | 1012 hPa | 0 mm | - | 758 W/m² | - |
* Rain latest hour (hover to see other rain measurements)
** Current wind speed in m/s (hover to see current wind gust speed)